sensor_id;sensor_type;location;lat;lon;timestamp;temperature;humidity
67598;DHT22;62026;39.230;9.122;2023-04-24T00:00:57;17.30;68.40
67598;DHT22;62026;39.230;9.122;2023-04-24T00:03:24;17.30;68.40
67598;DHT22;62026;39.230;9.122;2023-04-24T00:05:54;17.30;68.60
67598;DHT22;62026;39.230;9.122;2023-04-24T00:08:20;17.30;68.40
67598;DHT22;62026;39.230;9.122;2023-04-24T00:10:48;17.30;68.40
67598;DHT22;62026;39.230;9.122;2023-04-24T00:13:14;17.20;68.60
67598;DHT22;62026;39.230;9.122;2023-04-24T00:15:40;17.30;68.40
67598;DHT22;62026;39.230;9.122;2023-04-24T00:18:06;17.30;68.50
67598;DHT22;62026;39.230;9.122;2023-04-24T00:20:32;17.30;68.40
67598;DHT22;62026;39.230;9.122;2023-04-24T00:22:58;17.30;68.40
67598;DHT22;62026;39.230;9.122;2023-04-24T00:25:24;17.20;68.40
67598;DHT22;62026;39.230;9.122;2023-04-24T00:27:50;17.20;68.40
67598;DHT22;62026;39.230;9.122;2023-04-24T00:30:16;17.20;68.40
67598;DHT22;62026;39.230;9.122;2023-04-24T00:32:43;17.20;68.60
67598;DHT22;62026;39.230;9.122;2023-04-24T00:35:08;17.20;68.60
67598;DHT22;62026;39.230;9.122;2023-04-24T00:37:35;17.20;68.60
67598;DHT22;62026;39.230;9.122;2023-04-24T00:40:02;17.20;68.70
67598;DHT22;62026;39.230;9.122;2023-04-24T00:42:28;17.20;68.60
67598;DHT22;62026;39.230;9.122;2023-04-24T00:44:56;17.20;68.40
67598;DHT22;62026;39.230;9.122;2023-04-24T00:47:23;17.20;68.40
67598;DHT22;62026;39.230;9.122;2023-04-24T00:49:51;17.10;68.40
67598;DHT22;62026;39.230;9.122;2023-04-24T00:52:18;17.10;68.40
67598;DHT22;62026;39.230;9.122;2023-04-24T00:54:44;17.10;68.50
67598;DHT22;62026;39.230;9.122;2023-04-24T00:57:11;17.10;68.40
67598;DHT22;62026;39.230;9.122;2023-04-24T00:59:39;17.10;68.40
67598;DHT22;62026;39.230;9.122;2023-04-24T01:02:07;17.10;68.40
67598;DHT22;62026;39.230;9.122;2023-04-24T01:04:35;17.10;68.40
67598;DHT22;62026;39.230;9.122;2023-04-24T01:07:01;17.10;68.40
67598;DHT22;62026;39.230;9.122;2023-04-24T01:09:28;17.10;68.40
67598;DHT22;62026;39.230;9.122;2023-04-24T01:11:57;17.00;68.60
67598;DHT22;62026;39.230;9.122;2023-04-24T01:14:23;17.00;68.70
67598;DHT22;62026;39.230;9.122;2023-04-24T01:16:50;17.00;68.70
67598;DHT22;62026;39.230;9.122;2023-04-24T01:19:17;17.00;68.60
67598;DHT22;62026;39.230;9.122;2023-04-24T01:21:45;17.00;68.30
67598;DHT22;62026;39.230;9.122;2023-04-24T01:24:13;17.00;68.40
67598;DHT22;62026;39.230;9.122;2023-04-24T01:26:39;17.00;68.40
67598;DHT22;62026;39.230;9.122;2023-04-24T01:29:05;16.90;68.40
67598;DHT22;62026;39.230;9.122;2023-04-24T01:31:32;16.90;68.40
67598;DHT22;62026;39.230;9.122;2023-04-24T01:33:59;16.90;68.40
67598;DHT22;62026;39.230;9.122;2023-04-24T01:36:27;16.90;68.40
67598;DHT22;62026;39.230;9.122;2023-04-24T01:38:55;16.90;68.40
67598;DHT22;62026;39.230;9.122;2023-04-24T01:41:21;16.90;68.50
67598;DHT22;62026;39.230;9.122;2023-04-24T01:43:48;16.90;68.60
67598;DHT22;62026;39.230;9.122;2023-04-24T01:46:15;16.80;68.60
67598;DHT22;62026;39.230;9.122;2023-04-24T01:48:41;16.80;68.70
67598;DHT22;62026;39.230;9.122;2023-04-24T01:51:07;16.80;68.70
67598;DHT22;62026;39.230;9.122;2023-04-24T01:53:33;16.80;68.80
67598;DHT22;62026;39.230;9.122;2023-04-24T01:55:59;16.80;68.80
67598;DHT22;62026;39.230;9.122;2023-04-24T01:58:27;16.80;69.00
67598;DHT22;62026;39.230;9.122;2023-04-24T02:00:53;16.80;69.20
67598;DHT22;62026;39.230;9.122;2023-04-24T02:03:22;16.80;69.30
67598;DHT22;62026;39.230;9.122;2023-04-24T02:05:48;16.80;69.50
67598;DHT22;62026;39.230;9.122;2023-04-24T02:08:14;16.80;69.60
67598;DHT22;62026;39.230;9.122;2023-04-24T02:10:40;16.90;69.40
67598;DHT22;62026;39.230;9.122;2023-04-24T02:13:06;16.90;69.50
67598;DHT22;62026;39.230;9.122;2023-04-24T02:15:32;16.90;69.60
67598;DHT22;62026;39.230;9.122;2023-04-24T02:17:58;16.80;69.40
67598;DHT22;62026;39.230;9.122;2023-04-24T02:20:24;16.80;69.30
67598;DHT22;62026;39.230;9.122;2023-04-24T02:22:50;16.80;69.20
67598;DHT22;62026;39.230;9.122;2023-04-24T02:25:17;16.70;69.30
67598;DHT22;62026;39.230;9.122;2023-04-24T02:27:43;16.70;69.10
67598;DHT22;62026;39.230;9.122;2023-04-24T02:30:09;16.70;69.30
67598;DHT22;62026;39.230;9.122;2023-04-24T02:32:36;16.70;69.40
67598;DHT22;62026;39.230;9.122;2023-04-24T02:35:02;16.70;69.60
67598;DHT22;62026;39.230;9.122;2023-04-24T02:37:28;16.70;69.70
67598;DHT22;62026;39.230;9.122;2023-04-24T02:39:54;16.70;69.70
67598;DHT22;62026;39.230;9.122;2023-04-24T02:42:20;16.70;69.80
67598;DHT22;62026;39.230;9.122;2023-04-24T02:44:46;16.70;69.80
67598;DHT22;62026;39.230;9.122;2023-04-24T02:47:12;16.60;69.90
67598;DHT22;62026;39.230;9.122;2023-04-24T02:49:38;16.60;70.00
67598;DHT22;62026;39.230;9.122;2023-04-24T02:52:04;16.60;70.10
67598;DHT22;62026;39.230;9.122;2023-04-24T02:54:30;16.60;70.20
67598;DHT22;62026;39.230;9.122;2023-04-24T02:56:56;16.60;70.10
67598;DHT22;62026;39.230;9.122;2023-04-24T02:59:22;16.60;70.20
67598;DHT22;62026;39.230;9.122;2023-04-24T03:01:48;16.60;70.20
67598;DHT22;62026;39.230;9.122;2023-04-24T03:04:14;16.60;70.10
67598;DHT22;62026;39.230;9.122;2023-04-24T03:06:41;16.60;70.10
67598;DHT22;62026;39.230;9.122;2023-04-24T03:09:07;16.60;70.10
67598;DHT22;62026;39.230;9.122;2023-04-24T03:11:33;16.60;70.00
67598;DHT22;62026;39.230;9.122;2023-04-24T03:13:59;16.60;69.90
67598;DHT22;62026;39.230;9.122;2023-04-24T03:16:25;16.60;70.00
67598;DHT22;62026;39.230;9.122;2023-04-24T03:18:54;16.60;69.90
67598;DHT22;62026;39.230;9.122;2023-04-24T03:21:21;16.60;69.90
67598;DHT22;62026;39.230;9.122;2023-04-24T03:23:48;16.60;69.90
67598;DHT22;62026;39.230;9.122;2023-04-24T03:26:14;16.60;69.90
67598;DHT22;62026;39.230;9.122;2023-04-24T03:28:51;16.60;69.80
67598;DHT22;62026;39.230;9.122;2023-04-24T03:31:17;16.60;69.80
67598;DHT22;62026;39.230;9.122;2023-04-24T03:33:44;16.60;69.70
67598;DHT22;62026;39.230;9.122;2023-04-24T03:36:10;16.60;69.60
67598;DHT22;62026;39.230;9.122;2023-04-24T03:38:39;16.50;69.60
67598;DHT22;62026;39.230;9.122;2023-04-24T03:41:27;16.60;69.60
67598;DHT22;62026;39.230;9.122;2023-04-24T03:44:12;16.60;69.60
67598;DHT22;62026;39.230;9.122;2023-04-24T03:46:38;16.60;69.60
67598;DHT22;62026;39.230;9.122;2023-04-24T03:49:04;16.50;69.60
67598;DHT22;62026;39.230;9.122;2023-04-24T03:51:34;16.50;69.50
67598;DHT22;62026;39.230;9.122;2023-04-24T03:54:09;16.50;69.50
67598;DHT22;62026;39.230;9.122;2023-04-24T03:56:38;16.50;69.60
67598;DHT22;62026;39.230;9.122;2023-04-24T03:59:04;16.50;69.60
67598;DHT22;62026;39.230;9.122;2023-04-24T04:01:30;16.50;69.80
67598;DHT22;62026;39.230;9.122;2023-04-24T04:04:05;16.50;69.80
67598;DHT22;62026;39.230;9.122;2023-04-24T04:06:32;16.50;69.80
67598;DHT22;62026;39.230;9.122;2023-04-24T04:08:59;16.50;69.90
67598;DHT22;62026;39.230;9.122;2023-04-24T04:11:26;16.50;69.90
67598;DHT22;62026;39.230;9.122;2023-04-24T04:13:52;16.50;70.10
67598;DHT22;62026;39.230;9.122;2023-04-24T04:16:20;16.50;70.10
67598;DHT22;62026;39.230;9.122;2023-04-24T04:18:49;16.50;70.20
67598;DHT22;62026;39.230;9.122;2023-04-24T04:21:15;16.50;70.20
67598;DHT22;62026;39.230;9.122;2023-04-24T04:23:41;16.50;70.30
67598;DHT22;62026;39.230;9.122;2023-04-24T04:26:15;16.50;70.40
67598;DHT22;62026;39.230;9.122;2023-04-24T04:29:10;16.50;70.40
67598;DHT22;62026;39.230;9.122;2023-04-24T04:31:40;16.50;70.50
67598;DHT22;62026;39.230;9.122;2023-04-24T04:34:10;16.50;70.40
67598;DHT22;62026;39.230;9.122;2023-04-24T04:36:38;16.50;70.40
67598;DHT22;62026;39.230;9.122;2023-04-24T04:39:21;16.50;70.50
67598;DHT22;62026;39.230;9.122;2023-04-24T04:41:58;16.50;70.40
67598;DHT22;62026;39.230;9.122;2023-04-24T04:44:29;16.50;70.50
67598;DHT22;62026;39.230;9.122;2023-04-24T04:46:57;16.50;70.50
67598;DHT22;62026;39.230;9.122;2023-04-24T04:49:26;16.50;70.60
67598;DHT22;62026;39.230;9.122;2023-04-24T04:51:54;16.40;70.70
67598;DHT22;62026;39.230;9.122;2023-04-24T04:54:23;16.40;70.80
67598;DHT22;62026;39.230;9.122;2023-04-24T04:56:52;16.50;70.80
67598;DHT22;62026;39.230;9.122;2023-04-24T04:59:19;16.50;70.80
67598;DHT22;62026;39.230;9.122;2023-04-24T05:01:46;16.50;70.80
67598;DHT22;62026;39.230;9.122;2023-04-24T05:04:14;16.50;70.80
67598;DHT22;62026;39.230;9.122;2023-04-24T05:06:40;16.50;70.70
67598;DHT22;62026;39.230;9.122;2023-04-24T05:09:06;16.50;70.80
67598;DHT22;62026;39.230;9.122;2023-04-24T05:11:58;16.50;70.80
67598;DHT22;62026;39.230;9.122;2023-04-24T05:14:26;16.60;70.60
67598;DHT22;62026;39.230;9.122;2023-04-24T05:16:52;16.60;70.70
67598;DHT22;62026;39.230;9.122;2023-04-24T05:19:20;16.60;70.60
67598;DHT22;62026;39.230;9.122;2023-04-24T05:21:46;16.60;70.60
67598;DHT22;62026;39.230;9.122;2023-04-24T05:24:12;16.60;70.50
67598;DHT22;62026;39.230;9.122;2023-04-24T05:26:44;16.60;70.50
67598;DHT22;62026;39.230;9.122;2023-04-24T05:29:11;16.60;70.50
67598;DHT22;62026;39.230;9.122;2023-04-24T05:31:37;16.70;70.40
67598;DHT22;62026;39.230;9.122;2023-04-24T05:34:04;16.70;70.10
67598;DHT22;62026;39.230;9.122;2023-04-24T05:36:31;16.80;70.00
67598;DHT22;62026;39.230;9.122;2023-04-24T05:38:57;16.90;69.70
67598;DHT22;62026;39.230;9.122;2023-04-24T05:41:23;16.90;69.50
67598;DHT22;62026;39.230;9.122;2023-04-24T05:43:50;17.00;69.40
67598;DHT22;62026;39.230;9.122;2023-04-24T05:46:16;17.10;69.00
67598;DHT22;62026;39.230;9.122;2023-04-24T05:48:42;17.20;68.80
67598;DHT22;62026;39.230;9.122;2023-04-24T05:51:09;17.30;68.40
67598;DHT22;62026;39.230;9.122;2023-04-24T05:53:35;17.40;68.20
67598;DHT22;62026;39.230;9.122;2023-04-24T05:56:01;17.50;68.00
67598;DHT22;62026;39.230;9.122;2023-04-24T05:58:28;17.70;67.70
67598;DHT22;62026;39.230;9.122;2023-04-24T06:00:54;17.80;67.20
67598;DHT22;62026;39.230;9.122;2023-04-24T06:03:20;18.00;66.80
67598;DHT22;62026;39.230;9.122;2023-04-24T06:05:50;18.10;66.30
67598;DHT22;62026;39.230;9.122;2023-04-24T06:08:16;18.30;65.70
67598;DHT22;62026;39.230;9.122;2023-04-24T06:10:44;18.40;65.20
67598;DHT22;62026;39.230;9.122;2023-04-24T06:13:11;18.50;64.50
67598;DHT22;62026;39.230;9.122;2023-04-24T06:15:41;18.60;64.30
67598;DHT22;62026;39.230;9.122;2023-04-24T06:18:16;18.70;63.70
67598;DHT22;62026;39.230;9.122;2023-04-24T06:20:42;18.90;63.10
67598;DHT22;62026;39.230;9.122;2023-04-24T06:23:09;18.90;62.80
67598;DHT22;62026;39.230;9.122;2023-04-24T06:25:35;19.00;62.50
67598;DHT22;62026;39.230;9.122;2023-04-24T06:28:01;19.10;62.30
67598;DHT22;62026;39.230;9.122;2023-04-24T06:30:29;19.10;61.90
67598;DHT22;62026;39.230;9.122;2023-04-24T06:32:55;19.10;62.10
67598;DHT22;62026;39.230;9.122;2023-04-24T06:35:21;19.10;61.90
67598;DHT22;62026;39.230;9.122;2023-04-24T06:37:47;19.10;61.60
67598;DHT22;62026;39.230;9.122;2023-04-24T06:40:14;19.10;61.50
67598;DHT22;62026;39.230;9.122;2023-04-24T06:42:40;19.10;61.20
67598;DHT22;62026;39.230;9.122;2023-04-24T06:45:08;19.10;61.40
67598;DHT22;62026;39.230;9.122;2023-04-24T06:47:34;19.20;61.40
67598;DHT22;62026;39.230;9.122;2023-04-24T06:50:00;19.20;61.40
67598;DHT22;62026;39.230;9.122;2023-04-24T06:52:26;19.30;61.10
67598;DHT22;62026;39.230;9.122;2023-04-24T06:54:52;19.40;60.80
67598;DHT22;62026;39.230;9.122;2023-04-24T06:57:18;19.50;60.40
67598;DHT22;62026;39.230;9.122;2023-04-24T06:59:45;19.50;60.20
67598;DHT22;62026;39.230;9.122;2023-04-24T07:02:11;19.60;60.10
67598;DHT22;62026;39.230;9.122;2023-04-24T07:04:37;19.80;60.00
67598;DHT22;62026;39.230;9.122;2023-04-24T07:07:03;20.00;59.20
67598;DHT22;62026;39.230;9.122;2023-04-24T07:09:30;20.10;58.70
67598;DHT22;62026;39.230;9.122;2023-04-24T07:11:56;20.10;58.60
67598;DHT22;62026;39.230;9.122;2023-04-24T07:14:22;20.30;58.40
67598;DHT22;62026;39.230;9.122;2023-04-24T07:16:48;20.50;57.90
67598;DHT22;62026;39.230;9.122;2023-04-24T07:19:14;20.60;57.60
67598;DHT22;62026;39.230;9.122;2023-04-24T07:21:41;20.60;57.40
67598;DHT22;62026;39.230;9.122;2023-04-24T07:24:07;20.80;56.90
67598;DHT22;62026;39.230;9.122;2023-04-24T07:26:37;20.90;56.70
67598;DHT22;62026;39.230;9.122;2023-04-24T07:29:04;21.00;56.10
67598;DHT22;62026;39.230;9.122;2023-04-24T07:31:30;21.10;56.20
67598;DHT22;62026;39.230;9.122;2023-04-24T07:33:57;21.30;55.80
67598;DHT22;62026;39.230;9.122;2023-04-24T07:36:26;21.50;55.30
67598;DHT22;62026;39.230;9.122;2023-04-24T07:38:54;21.50;55.10
67598;DHT22;62026;39.230;9.122;2023-04-24T07:41:21;21.70;54.70
67598;DHT22;62026;39.230;9.122;2023-04-24T07:43:47;21.80;54.60
67598;DHT22;62026;39.230;9.122;2023-04-24T07:46:13;21.90;54.10
67598;DHT22;62026;39.230;9.122;2023-04-24T07:48:39;21.80;54.30
67598;DHT22;62026;39.230;9.122;2023-04-24T07:51:05;21.90;54.30
67598;DHT22;62026;39.230;9.122;2023-04-24T07:53:31;21.90;54.30
67598;DHT22;62026;39.230;9.122;2023-04-24T07:55:57;22.10;53.90
67598;DHT22;62026;39.230;9.122;2023-04-24T07:58:23;22.20;53.70
67598;DHT22;62026;39.230;9.122;2023-04-24T08:00:49;22.40;53.40
67598;DHT22;62026;39.230;9.122;2023-04-24T08:03:15;22.60;53.10
67598;DHT22;62026;39.230;9.122;2023-04-24T08:05:44;22.60;53.20
67598;DHT22;62026;39.230;9.122;2023-04-24T08:08:11;22.40;53.40
67598;DHT22;62026;39.230;9.122;2023-04-24T08:10:37;22.50;53.30
67598;DHT22;62026;39.230;9.122;2023-04-24T08:13:03;22.30;53.60
67598;DHT22;62026;39.230;9.122;2023-04-24T08:15:29;22.60;53.30
67598;DHT22;62026;39.230;9.122;2023-04-24T08:17:57;22.90;53.00
67598;DHT22;62026;39.230;9.122;2023-04-24T08:20:23;23.10;52.60
67598;DHT22;62026;39.230;9.122;2023-04-24T08:22:49;23.10;52.50
67598;DHT22;62026;39.230;9.122;2023-04-24T08:25:15;23.20;52.40
67598;DHT22;62026;39.230;9.122;2023-04-24T08:27:41;23.30;52.30
67598;DHT22;62026;39.230;9.122;2023-04-24T08:30:08;23.10;52.40
67598;DHT22;62026;39.230;9.122;2023-04-24T08:32:35;23.40;51.90
67598;DHT22;62026;39.230;9.122;2023-04-24T08:35:01;23.40;51.80
67598;DHT22;62026;39.230;9.122;2023-04-24T08:37:28;23.40;51.70
67598;DHT22;62026;39.230;9.122;2023-04-24T08:39:54;23.60;51.40
67598;DHT22;62026;39.230;9.122;2023-04-24T08:42:21;23.50;51.70
67598;DHT22;62026;39.230;9.122;2023-04-24T08:44:49;23.40;52.10
67598;DHT22;62026;39.230;9.122;2023-04-24T08:47:15;23.50;51.80
67598;DHT22;62026;39.230;9.122;2023-04-24T08:49:42;23.70;51.40
67598;DHT22;62026;39.230;9.122;2023-04-24T08:52:12;23.80;51.30
67598;DHT22;62026;39.230;9.122;2023-04-24T08:54:39;24.00;51.00
67598;DHT22;62026;39.230;9.122;2023-04-24T08:57:09;24.10;50.80
67598;DHT22;62026;39.230;9.122;2023-04-24T08:59:38;24.10;51.00
67598;DHT22;62026;39.230;9.122;2023-04-24T09:02:04;23.80;51.50
67598;DHT22;62026;39.230;9.122;2023-04-24T09:04:33;23.70;51.40
67598;DHT22;62026;39.230;9.122;2023-04-24T09:07:00;24.00;50.30
67598;DHT22;62026;39.230;9.122;2023-04-24T09:09:29;24.30;49.80
67598;DHT22;62026;39.230;9.122;2023-04-24T09:11:57;24.40;49.20
67598;DHT22;62026;39.230;9.122;2023-04-24T09:14:24;24.40;49.30
67598;DHT22;62026;39.230;9.122;2023-04-24T09:16:50;24.10;49.90
67598;DHT22;62026;39.230;9.122;2023-04-24T09:19:16;24.10;50.00
67598;DHT22;62026;39.230;9.122;2023-04-24T09:21:46;24.40;49.60
67598;DHT22;62026;39.230;9.122;2023-04-24T09:24:17;24.70;48.60
67598;DHT22;62026;39.230;9.122;2023-04-24T09:26:45;24.30;48.90
67598;DHT22;62026;39.230;9.122;2023-04-24T09:29:16;24.10;49.10
67598;DHT22;62026;39.230;9.122;2023-04-24T09:31:42;24.10;48.50
67598;DHT22;62026;39.230;9.122;2023-04-24T09:34:09;24.50;47.50
67598;DHT22;62026;39.230;9.122;2023-04-24T09:36:37;24.40;45.80
67598;DHT22;62026;39.230;9.122;2023-04-24T09:39:09;24.50;44.60
67598;DHT22;62026;39.230;9.122;2023-04-24T09:41:51;24.50;42.90
67598;DHT22;62026;39.230;9.122;2023-04-24T09:44:23;24.40;42.20
67598;DHT22;62026;39.230;9.122;2023-04-24T09:49:29;24.50;41.00
67598;DHT22;62026;39.230;9.122;2023-04-24T09:52:06;24.40;41.90
67598;DHT22;62026;39.230;9.122;2023-04-24T09:54:34;24.40;42.50
67598;DHT22;62026;39.230;9.122;2023-04-24T09:57:02;24.40;42.60
67598;DHT22;62026;39.230;9.122;2023-04-24T09:59:28;24.50;43.10
67598;DHT22;62026;39.230;9.122;2023-04-24T10:01:55;24.90;42.90
67598;DHT22;62026;39.230;9.122;2023-04-24T10:04:27;25.00;43.10
67598;DHT22;62026;39.230;9.122;2023-04-24T10:06:56;24.70;43.20
67598;DHT22;62026;39.230;9.122;2023-04-24T10:09:24;24.50;43.80
67598;DHT22;62026;39.230;9.122;2023-04-24T10:11:53;24.50;43.70
67598;DHT22;62026;39.230;9.122;2023-04-24T10:14:24;24.30;43.20
67598;DHT22;62026;39.230;9.122;2023-04-24T10:16:54;24.40;43.40
67598;DHT22;62026;39.230;9.122;2023-04-24T10:19:25;24.30;43.20
67598;DHT22;62026;39.230;9.122;2023-04-24T10:21:52;24.30;43.00
67598;DHT22;62026;39.230;9.122;2023-04-24T10:24:20;24.30;43.10
67598;DHT22;62026;39.230;9.122;2023-04-24T10:26:47;24.30;43.20
67598;DHT22;62026;39.230;9.122;2023-04-24T10:29:18;24.40;42.40
67598;DHT22;62026;39.230;9.122;2023-04-24T10:31:45;24.50;41.80
67598;DHT22;62026;39.230;9.122;2023-04-24T10:34:12;24.30;42.70
67598;DHT22;62026;39.230;9.122;2023-04-24T10:36:45;24.10;43.60
67598;DHT22;62026;39.230;9.122;2023-04-24T10:39:16;24.30;43.70
67598;DHT22;62026;39.230;9.122;2023-04-24T10:41:44;24.30;43.90
67598;DHT22;62026;39.230;9.122;2023-04-24T10:44:13;24.20;43.70
67598;DHT22;62026;39.230;9.122;2023-04-24T10:46:43;24.10;43.70
67598;DHT22;62026;39.230;9.122;2023-04-24T10:49:11;24.00;43.00
67598;DHT22;62026;39.230;9.122;2023-04-24T10:51:53;24.00;43.40
67598;DHT22;62026;39.230;9.122;2023-04-24T10:59:45;23.90;43.40
67598;DHT22;62026;39.230;9.122;2023-04-24T11:02:16;23.90;44.00
67598;DHT22;62026;39.230;9.122;2023-04-24T11:04:44;23.70;43.20
67598;DHT22;62026;39.230;9.122;2023-04-24T11:07:13;23.70;42.90
67598;DHT22;62026;39.230;9.122;2023-04-24T11:09:39;23.60;43.20
67598;DHT22;62026;39.230;9.122;2023-04-24T11:12:11;23.60;43.40
67598;DHT22;62026;39.230;9.122;2023-04-24T11:14:59;23.60;43.30
67598;DHT22;62026;39.230;9.122;2023-04-24T11:17:36;23.70;43.30
67598;DHT22;62026;39.230;9.122;2023-04-24T11:20:07;23.60;43.50
67598;DHT22;62026;39.230;9.122;2023-04-24T11:22:38;23.50;44.20
67598;DHT22;62026;39.230;9.122;2023-04-24T11:25:08;23.50;44.60
67598;DHT22;62026;39.230;9.122;2023-04-24T11:27:44;23.50;44.50
67598;DHT22;62026;39.230;9.122;2023-04-24T11:30:12;23.40;44.30
67598;DHT22;62026;39.230;9.122;2023-04-24T11:32:43;23.50;44.20
67598;DHT22;62026;39.230;9.122;2023-04-24T11:37:46;23.30;44.00
67598;DHT22;62026;39.230;9.122;2023-04-24T11:40:17;23.30;44.10
67598;DHT22;62026;39.230;9.122;2023-04-24T11:42:51;23.40;44.60
67598;DHT22;62026;39.230;9.122;2023-04-24T11:45:21;23.30;45.10
67598;DHT22;62026;39.230;9.122;2023-04-24T11:47:49;23.20;45.10
67598;DHT22;62026;39.230;9.122;2023-04-24T11:50:18;23.20;45.10
67598;DHT22;62026;39.230;9.122;2023-04-24T11:52:49;23.20;45.10
67598;DHT22;62026;39.230;9.122;2023-04-24T11:57:43;23.20;45.20
67598;DHT22;62026;39.230;9.122;2023-04-24T12:00:17;23.20;45.50
67598;DHT22;62026;39.230;9.122;2023-04-24T12:02:44;23.20;45.20
67598;DHT22;62026;39.230;9.122;2023-04-24T12:07:46;23.10;45.20
67598;DHT22;62026;39.230;9.122;2023-04-24T12:10:12;23.10;45.20
67598;DHT22;62026;39.230;9.122;2023-04-24T12:12:38;23.10;44.40
67598;DHT22;62026;39.230;9.122;2023-04-24T12:15:08;23.10;44.50
67598;DHT22;62026;39.230;9.122;2023-04-24T12:17:35;23.10;44.50
67598;DHT22;62026;39.230;9.122;2023-04-24T12:20:06;23.00;44.40
67598;DHT22;62026;39.230;9.122;2023-04-24T12:22:49;23.00;44.50
67598;DHT22;62026;39.230;9.122;2023-04-24T12:25:20;23.00;44.70
67598;DHT22;62026;39.230;9.122;2023-04-24T12:27:53;23.00;44.30
67598;DHT22;62026;39.230;9.122;2023-04-24T12:30:21;23.00;44.50
67598;DHT22;62026;39.230;9.122;2023-04-24T12:32:54;23.00;44.60
67598;DHT22;62026;39.230;9.122;2023-04-24T12:35:22;23.00;44.50
67598;DHT22;62026;39.230;9.122;2023-04-24T12:37:49;23.00;44.50
67598;DHT22;62026;39.230;9.122;2023-04-24T12:40:17;23.00;44.50
67598;DHT22;62026;39.230;9.122;2023-04-24T12:42:48;23.00;44.60
67598;DHT22;62026;39.230;9.122;2023-04-24T12:45:16;23.00;44.20
67598;DHT22;62026;39.230;9.122;2023-04-24T12:47:45;23.00;44.50
67598;DHT22;62026;39.230;9.122;2023-04-24T12:50:15;23.00;44.50
67598;DHT22;62026;39.230;9.122;2023-04-24T12:52:42;22.90;44.60
67598;DHT22;62026;39.230;9.122;2023-04-24T12:55:09;22.90;44.20
67598;DHT22;62026;39.230;9.122;2023-04-24T12:57:38;22.90;44.50
67598;DHT22;62026;39.230;9.122;2023-04-24T13:00:07;22.90;44.30
67598;DHT22;62026;39.230;9.122;2023-04-24T13:02:34;23.00;44.20
67598;DHT22;62026;39.230;9.122;2023-04-24T13:05:01;23.00;44.50
67598;DHT22;62026;39.230;9.122;2023-04-24T13:07:28;23.00;44.40
67598;DHT22;62026;39.230;9.122;2023-04-24T13:09:55;23.00;44.60
67598;DHT22;62026;39.230;9.122;2023-04-24T13:12:23;23.00;44.80
67598;DHT22;62026;39.230;9.122;2023-04-24T13:14:49;23.00;44.60
67598;DHT22;62026;39.230;9.122;2023-04-24T13:17:15;23.00;44.80
67598;DHT22;62026;39.230;9.122;2023-04-24T13:19:43;23.00;45.00
67598;DHT22;62026;39.230;9.122;2023-04-24T13:22:11;23.00;45.30
67598;DHT22;62026;39.230;9.122;2023-04-24T13:24:39;23.00;45.20
67598;DHT22;62026;39.230;9.122;2023-04-24T13:27:07;23.00;45.00
67598;DHT22;62026;39.230;9.122;2023-04-24T13:29:33;23.10;44.80
67598;DHT22;62026;39.230;9.122;2023-04-24T13:31:59;23.00;44.40
67598;DHT22;62026;39.230;9.122;2023-04-24T13:34:26;23.00;44.50
67598;DHT22;62026;39.230;9.122;2023-04-24T13:36:54;23.00;44.80
67598;DHT22;62026;39.230;9.122;2023-04-24T13:39:22;23.00;44.70
67598;DHT22;62026;39.230;9.122;2023-04-24T13:41:48;23.00;44.60
67598;DHT22;62026;39.230;9.122;2023-04-24T13:44:16;22.90;44.40
67598;DHT22;62026;39.230;9.122;2023-04-24T13:46:44;22.90;44.10
67598;DHT22;62026;39.230;9.122;2023-04-24T13:49:15;23.00;43.90
67598;DHT22;62026;39.230;9.122;2023-04-24T13:51:42;23.00;44.00
67598;DHT22;62026;39.230;9.122;2023-04-24T13:54:09;22.90;44.20
67598;DHT22;62026;39.230;9.122;2023-04-24T13:56:35;22.90;44.50
67598;DHT22;62026;39.230;9.122;2023-04-24T13:59:01;22.90;44.00
67598;DHT22;62026;39.230;9.122;2023-04-24T14:01:27;22.90;43.60
67598;DHT22;62026;39.230;9.122;2023-04-24T14:03:54;22.90;43.60
67598;DHT22;62026;39.230;9.122;2023-04-24T14:06:21;22.90;43.50
67598;DHT22;62026;39.230;9.122;2023-04-24T14:08:48;22.80;43.30
67598;DHT22;62026;39.230;9.122;2023-04-24T14:11:16;22.80;43.30
67598;DHT22;62026;39.230;9.122;2023-04-24T14:13:43;22.90;43.40
67598;DHT22;62026;39.230;9.122;2023-04-24T14:16:10;22.80;43.50
67598;DHT22;62026;39.230;9.122;2023-04-24T14:18:37;22.80;43.40
67598;DHT22;62026;39.230;9.122;2023-04-24T14:21:04;22.80;43.70
67598;DHT22;62026;39.230;9.122;2023-04-24T14:23:30;22.80;43.40
67598;DHT22;62026;39.230;9.122;2023-04-24T14:25:58;22.80;43.40
67598;DHT22;62026;39.230;9.122;2023-04-24T14:28:25;22.80;43.60
67598;DHT22;62026;39.230;9.122;2023-04-24T14:30:52;22.80;43.60
67598;DHT22;62026;39.230;9.122;2023-04-24T14:33:18;22.80;43.70
67598;DHT22;62026;39.230;9.122;2023-04-24T14:35:45;22.80;43.60
67598;DHT22;62026;39.230;9.122;2023-04-24T14:38:11;22.80;43.90
67598;DHT22;62026;39.230;9.122;2023-04-24T14:40:37;22.80;43.60
67598;DHT22;62026;39.230;9.122;2023-04-24T14:43:03;22.80;43.50
67598;DHT22;62026;39.230;9.122;2023-04-24T14:45:30;22.80;44.00
67598;DHT22;62026;39.230;9.122;2023-04-24T14:47:56;22.80;43.70
67598;DHT22;62026;39.230;9.122;2023-04-24T14:50:23;22.80;43.80
67598;DHT22;62026;39.230;9.122;2023-04-24T14:52:54;22.80;44.00
67598;DHT22;62026;39.230;9.122;2023-04-24T14:55:23;22.80;43.90
67598;DHT22;62026;39.230;9.122;2023-04-24T14:57:50;22.80;43.80
67598;DHT22;62026;39.230;9.122;2023-04-24T15:00:17;22.80;44.10
67598;DHT22;62026;39.230;9.122;2023-04-24T15:02:43;22.70;44.10
67598;DHT22;62026;39.230;9.122;2023-04-24T15:05:10;22.70;43.50
67598;DHT22;62026;39.230;9.122;2023-04-24T15:07:37;22.60;43.70
67598;DHT22;62026;39.230;9.122;2023-04-24T15:10:04;22.60;43.90
67598;DHT22;62026;39.230;9.122;2023-04-24T15:12:31;22.60;43.80
67598;DHT22;62026;39.230;9.122;2023-04-24T15:14:57;22.60;43.70
67598;DHT22;62026;39.230;9.122;2023-04-24T15:17:25;22.60;43.70
67598;DHT22;62026;39.230;9.122;2023-04-24T15:19:52;22.70;44.00
67598;DHT22;62026;39.230;9.122;2023-04-24T15:22:18;22.70;43.80
67598;DHT22;62026;39.230;9.122;2023-04-24T15:24:44;22.60;43.70
67598;DHT22;62026;39.230;9.122;2023-04-24T15:27:11;22.50;43.90
67598;DHT22;62026;39.230;9.122;2023-04-24T15:29:37;22.60;44.20
67598;DHT22;62026;39.230;9.122;2023-04-24T15:32:03;22.60;44.20
67598;DHT22;62026;39.230;9.122;2023-04-24T15:34:30;22.60;44.00
67598;DHT22;62026;39.230;9.122;2023-04-24T15:36:58;22.50;44.00
67598;DHT22;62026;39.230;9.122;2023-04-24T15:39:24;22.50;44.20
67598;DHT22;62026;39.230;9.122;2023-04-24T15:41:51;22.50;44.20
67598;DHT22;62026;39.230;9.122;2023-04-24T15:44:19;22.50;43.80
67598;DHT22;62026;39.230;9.122;2023-04-24T15:46:46;22.40;44.10
67598;DHT22;62026;39.230;9.122;2023-04-24T15:49:12;22.40;44.10